Time;durP1;ratioP1;P1;durP2;ratioP2;P2;SDS_P1;SDS_P2;PMS_P1;PMS_P2;Temp;Humidity;BMP_temperature;BMP_pressure;BME280_temperature;BME280_humidity;BME280_pressure;Samples;Min_cycle;Max_cycle;Signal;HPM_P1;HPM_P2
2023/12/13 00:01:32;;;;;;;112.82;23.25;;;29.90;85.40;;;;;;5035421;28;20107;-71
2023/12/13 00:04:00;;;;;;;26.70;14.57;;;29.70;85.30;;;;;;5010788;28;20081;-71
2023/12/13 00:06:28;;;;;;;240.70;33.78;;;29.90;84.60;;;;;;5029834;28;20037;-71
2023/12/13 00:08:56;;;;;;;35.25;14.50;;;29.90;84.90;;;;;;5029763;28;20040;-72
2023/12/13 00:11:23;;;;;;;30.95;16.67;;;29.70;84.50;;;;;;5024864;28;20025;-71
2023/12/13 00:13:50;;;;;;;35.28;16.33;;;30.10;84.80;;;;;;5038467;28;20059;-71
2023/12/13 00:16:19;;;;;;;37.85;16.35;;;30.30;83.40;;;;;;5030861;28;20025;-72
2023/12/13 00:18:49;;;;;;;24.17;15.70;;;30.60;82.80;;;;;;5026731;28;20494;-71
2023/12/13 00:21:17;;;;;;;28.27;15.38;;;31.00;82.00;;;;;;5021789;28;20148;-72
2023/12/13 00:23:48;;;;;;;21.25;14.30;;;31.20;80.70;;;;;;5013211;28;20497;-71
2023/12/13 00:26:17;;;;;;;26.75;14.68;;;31.00;81.10;;;;;;5034851;28;20022;-71
2023/12/13 00:28:45;;;;;;;21.10;14.68;;;30.60;81.80;;;;;;5036846;28;20026;-72
2023/12/13 00:31:13;;;;;;;23.33;15.48;;;30.10;83.00;;;;;;5014825;28;20029;-72
2023/12/13 00:33:40;;;;;;;23.70;15.68;;;30.00;83.40;;;;;;5033003;28;20033;-72
2023/12/13 00:36:08;;;;;;;26.95;15.07;;;30.10;83.40;;;;;;5034849;28;20075;-72
2023/12/13 00:38:36;;;;;;;21.52;14.10;;;30.50;83.80;;;;;;5027610;28;20025;-72
2023/12/13 00:41:03;;;;;;;21.33;14.15;;;31.10;82.40;;;;;;5016692;28;20021;-72
2023/12/13 00:43:30;;;;;;;18.92;12.98;;;31.70;81.10;;;;;;5038557;28;20537;-73
2023/12/13 00:45:58;;;;;;;23.13;12.77;;;32.30;79.00;;;;;;5030937;28;20047;-73
2023/12/13 00:48:26;;;;;;;25.17;13.45;;;33.00;79.10;;;;;;5033794;28;20033;-73
2023/12/13 00:50:54;;;;;;;20.30;13.70;;;33.20;75.00;;;;;;5048921;28;20044;-72
2023/12/13 00:53:21;;;;;;;21.83;13.95;;;32.90;75.30;;;;;;5035118;28;20461;-73
2023/12/13 00:55:51;;;;;;;18.88;14.27;;;32.00;76.30;;;;;;5056100;28;20059;-72
2023/12/13 00:58:19;;;;;;;21.95;14.13;;;31.90;77.80;;;;;;5054075;28;20017;-72
2023/12/13 01:00:47;;;;;;;21.30;14.60;;;32.00;77.20;;;;;;5057624;28;20469;-73
2023/12/13 01:03:14;;;;;;;20.70;14.27;;;32.00;76.70;;;;;;5032237;28;20041;-72
2023/12/13 01:05:41;;;;;;;25.02;14.32;;;32.00;76.70;;;;;;5059742;28;20025;-72
2023/12/13 01:08:09;;;;;;;27.10;14.38;;;32.20;76.30;;;;;;5032289;28;20405;-73
2023/12/13 01:10:36;;;;;;;22.00;14.43;;;31.90;76.20;;;;;;5031917;28;20040;-73
2023/12/13 01:13:03;;;;;;;23.52;13.80;;;31.70;76.80;;;;;;5049256;28;20722;-72
2023/12/13 01:15:30;;;;;;;21.83;14.85;;;31.50;77.60;;;;;;5053646;28;20029;-71
2023/12/13 01:17:58;;;;;;;21.05;13.82;;;31.60;78.60;;;;;;5049705;28;20052;-71
2023/12/13 01:20:25;;;;;;;20.67;13.98;;;32.20;77.40;;;;;;5054290;28;20038;-71
2023/12/13 01:22:53;;;;;;;23.85;14.07;;;32.60;76.80;;;;;;5049549;28;20425;-71
2023/12/13 01:25:20;;;;;;;24.67;14.02;;;32.60;76.40;;;;;;5050157;28;20021;-71
2023/12/13 01:27:47;;;;;;;21.70;14.70;;;33.20;75.50;;;;;;5038852;28;20032;-72
2023/12/13 01:30:15;;;;;;;19.25;14.25;;;34.10;74.20;;;;;;5046892;28;20029;-71
2023/12/13 01:32:42;;;;;;;23.67;14.02;;;33.90;73.10;;;;;;5051228;28;20124;-72
2023/12/13 01:35:09;;;;;;;25.15;14.10;;;34.40;71.90;;;;;;5057377;28;20036;-72
2023/12/13 01:37:37;;;;;;;18.35;13.05;;;34.10;71.70;;;;;;5047852;28;20114;-71
2023/12/13 01:40:05;;;;;;;22.70;13.05;;;34.10;71.50;;;;;;5051302;28;20527;-71
2023/12/13 01:42:32;;;;;;;19.85;12.48;;;33.70;71.10;;;;;;5048801;28;20037;-72
2023/12/13 01:45:00;;;;;;;20.08;13.68;;;33.80;71.10;;;;;;5045977;28;20074;-71
2023/12/13 01:47:27;;;;;;;22.17;13.48;;;34.20;70.20;;;;;;5048297;28;20027;-72
2023/12/13 01:49:54;;;;;;;19.23;12.73;;;34.30;69.60;;;;;;5044054;28;20056;-71
2023/12/13 01:52:22;;;;;;;19.90;12.98;;;34.50;69.10;;;;;;5043535;28;20465;-71
2023/12/13 01:54:51;;;;;;;21.33;13.15;;;33.90;69.10;;;;;;5046872;28;20079;-71
2023/12/13 01:57:19;;;;;;;22.10;12.98;;;33.90;69.80;;;;;;5036182;28;20147;-72
2023/12/13 01:59:47;;;;;;;22.13;13.43;;;34.20;70.00;;;;;;5047470;28;20025;-73
2023/12/13 02:02:15;;;;;;;17.38;12.65;;;34.30;68.60;;;;;;5035281;28;20037;-73
2023/12/13 02:04:43;;;;;;;20.02;13.85;;;34.50;69.20;;;;;;5044568;28;20021;-73
2023/12/13 02:07:10;;;;;;;18.08;12.45;;;35.00;68.40;;;;;;5048952;28;20048;-73
2023/12/13 02:09:37;;;;;;;19.27;12.52;;;35.40;67.80;;;;;;5049855;28;20132;-72
2023/12/13 02:12:05;;;;;;;19.50;12.93;;;35.40;66.90;;;;;;5048342;28;20052;-74
2023/12/13 02:14:33;;;;;;;17.58;13.20;;;35.50;65.80;;;;;;5050431;28;20025;-72
2023/12/13 02:17:00;;;;;;;18.60;12.35;;;35.20;66.00;;;;;;5058318;28;20025;-72
2023/12/13 02:19:28;;;;;;;15.95;12.95;;;35.00;66.50;;;;;;5030731;28;20051;-73
2023/12/13 02:21:55;;;;;;;16.75;11.73;;;35.10;66.10;;;;;;5057654;28;20112;-73
2023/12/13 02:24:24;;;;;;;22.30;12.85;;;35.50;67.00;;;;;;5053917;28;20456;-73
2023/12/13 02:26:54;;;;;;;18.88;12.07;;;36.00;65.80;;;;;;5051384;28;20033;-72
2023/12/13 02:29:22;;;;;;;23.00;12.98;;;36.10;63.50;;;;;;5055324;28;20020;-74
2023/12/13 02:31:49;;;;;;;17.95;13.25;;;35.80;64.60;;;;;;5053450;28;20025;-73
2023/12/13 02:34:16;;;;;;;23.85;13.43;;;35.70;64.20;;;;;;5053739;28;20064;-73
2023/12/13 02:36:48;;;;;;;19.23;12.07;;;35.70;64.10;;;;;;5053616;28;20146;-73
2023/12/13 02:39:19;;;;;;;16.48;11.75;;;36.00;64.30;;;;;;5057913;28;20021;-72
2023/12/13 02:41:46;;;;;;;16.88;11.52;;;36.30;64.00;;;;;;5054730;28;20067;-72
2023/12/13 02:44:13;;;;;;;19.52;12.52;;;36.70;63.80;;;;;;5055241;28;20041;-72
2023/12/13 02:46:41;;;;;;;20.83;12.38;;;36.50;61.80;;;;;;5054134;28;20032;-72
2023/12/13 02:49:08;;;;;;;19.75;12.88;;;36.20;62.40;;;;;;5049925;28;20029;-72
2023/12/13 02:51:36;;;;;;;18.58;13.05;;;36.10;62.20;;;;;;5050327;28;20060;-72
2023/12/13 02:54:03;;;;;;;17.83;12.43;;;36.20;62.50;;;;;;5054151;28;20458;-73
2023/12/13 02:56:31;;;;;;;18.25;13.02;;;36.00;62.20;;;;;;5055033;28;20025;-72
2023/12/13 02:58:58;;;;;;;18.60;12.25;;;36.30;62.50;;;;;;5034084;28;20089;-72
2023/12/13 03:01:27;;;;;;;16.77;11.80;;;36.60;62.20;;;;;;5035342;28;20112;-72
2023/12/13 03:03:54;;;;;;;17.83;12.55;;;37.10;62.20;;;;;;5048461;28;20143;-72
2023/12/13 03:06:22;;;;;;;19.63;12.90;;;37.40;61.70;;;;;;5050638;28;20044;-72
2023/12/13 03:08:49;;;;;;;14.93;12.10;;;36.90;60.90;;;;;;5052602;28;20029;-72
2023/12/13 03:11:17;;;;;;;16.00;12.60;;;36.60;60.60;;;;;;5049878;28;20030;-74
2023/12/13 03:13:45;;;;;;;19.52;11.77;;;36.60;61.00;;;;;;5049807;28;20588;-73
2023/12/13 03:16:12;;;;;;;24.02;12.57;;;36.40;60.50;;;;;;5050659;28;20029;-73
2023/12/13 03:18:39;;;;;;;19.45;13.40;;;36.50;61.30;;;;;;5047354;28;20026;-71
2023/12/13 03:21:07;;;;;;;20.02;12.32;;;37.00;63.10;;;;;;5057571;28;20059;-72
2023/12/13 03:23:34;;;;;;;21.55;11.75;;;37.50;60.50;;;;;;5048042;28;20096;-72
2023/12/13 03:26:02;;;;;;;16.23;11.45;;;37.50;59.50;;;;;;5044834;28;20037;-73
2023/12/13 03:28:29;;;;;;;14.90;11.35;;;37.40;60.30;;;;;;5048600;28;20053;-72
2023/12/13 03:30:57;;;;;;;16.52;11.65;;;37.30;59.50;;;;;;5046221;28;20064;-72
2023/12/13 03:33:25;;;;;;;17.13;11.38;;;36.90;59.00;;;;;;5041601;28;20032;-72
2023/12/13 03:35:52;;;;;;;15.57;11.98;;;37.10;61.50;;;;;;5049874;28;20100;-72
2023/12/13 03:38:19;;;;;;;18.00;10.85;;;37.20;59.20;;;;;;5042083;28;20029;-72
2023/12/13 03:40:47;;;;;;;14.95;11.13;;;37.10;58.70;;;;;;5051514;28;20025;-72
2023/12/13 03:43:14;;;;;;;21.00;11.55;;;36.90;57.90;;;;;;5051848;28;20171;-72
2023/12/13 03:45:41;;;;;;;15.73;10.57;;;36.40;59.50;;;;;;5053367;28;20034;-72
2023/12/13 03:48:09;;;;;;;17.02;10.95;;;36.60;59.10;;;;;;5031913;28;20171;-72
2023/12/13 03:50:36;;;;;;;17.75;11.50;;;36.50;58.70;;;;;;5052968;28;20052;-73
2023/12/13 03:53:04;;;;;;;17.85;11.73;;;36.40;60.30;;;;;;5046266;28;20032;-72
2023/12/13 03:55:31;;;;;;;21.85;12.00;;;36.70;58.90;;;;;;5055580;28;20016;-72
2023/12/13 03:57:58;;;;;;;19.85;11.18;;;36.80;58.80;;;;;;5035340;28;20025;-73
2023/12/13 04:00:26;;;;;;;15.95;11.35;;;36.90;58.70;;;;;;5052236;28;20502;-71
2023/12/13 04:02:53;;;;;;;17.70;11.07;;;36.90;59.10;;;;;;5051226;28;20036;-72
2023/12/13 04:05:21;;;;;;;17.27;10.32;;;37.40;59.80;;;;;;5027161;28;20032;-73
2023/12/13 04:07:48;;;;;;;17.73;10.60;;;37.50;58.10;;;;;;5054598;28;20086;-72
2023/12/13 04:10:19;;;;;;;18.73;10.48;;;38.00;59.70;;;;;;5054053;28;20162;-73
2023/12/13 04:12:46;;;;;;;18.10;10.88;;;38.00;56.90;;;;;;5050863;28;20036;-72
2023/12/13 04:15:14;;;;;;;16.27;10.95;;;38.10;56.60;;;;;;5047483;28;20068;-72
2023/12/13 04:17:41;;;;;;;12.15;9.68;;;38.00;56.60;;;;;;5048361;28;20454;-72
2023/12/13 04:20:09;;;;;;;15.05;9.85;;;37.90;56.40;;;;;;5052606;28;20035;-73
2023/12/13 04:22:37;;;;;;;15.10;10.65;;;37.20;56.60;;;;;;5050079;28;20099;-73
2023/12/13 04:25:05;;;;;;;15.93;10.15;;;36.80;57.80;;;;;;5052257;28;20021;-73
2023/12/13 04:27:33;;;;;;;15.75;10.25;;;36.30;57.90;;;;;;5050867;28;20527;-74
2023/12/13 04:30:00;;;;;;;15.60;11.15;;;35.80;58.50;;;;;;5054695;28;20493;-73
2023/12/13 04:32:28;;;;;;;13.30;10.55;;;35.60;59.40;;;;;;5054640;28;20461;-73
2023/12/13 04:34:55;;;;;;;15.68;10.93;;;35.50;59.40;;;;;;5054023;28;20021;-73
2023/12/13 04:37:23;;;;;;;14.00;9.65;;;35.30;60.00;;;;;;5025826;28;20478;-72
2023/12/13 04:39:51;;;;;;;15.55;10.73;;;35.20;60.70;;;;;;5029303;28;20028;-72
2023/12/13 04:42:18;;;;;;;14.57;9.95;;;35.60;60.10;;;;;;5046214;28;20027;-72
2023/12/13 04:44:45;;;;;;;14.43;10.45;;;35.90;59.50;;;;;;5049589;28;20064;-72
2023/12/13 04:47:13;;;;;;;16.75;9.52;;;36.10;58.70;;;;;;5048435;28;20083;-72
2023/12/13 04:49:40;;;;;;;14.27;9.73;;;36.00;59.00;;;;;;5031569;28;20093;-73
2023/12/13 04:52:08;;;;;;;17.73;10.27;;;36.40;59.20;;;;;;5033712;28;20036;-72
2023/12/13 04:54:38;;;;;;;14.02;9.30;;;36.70;58.50;;;;;;5050202;28;20020;-72
2023/12/13 04:57:06;;;;;;;15.32;6.38;;;36.60;57.90;;;;;;5047497;28;20040;-74
2023/12/13 04:59:33;;;;;;;12.75;5.80;;;36.40;62.20;;;;;;5046293;28;20025;-73
2023/12/13 05:02:01;;;;;;;11.95;4.63;;;36.10;63.00;;;;;;5047552;28;20470;-74
2023/12/13 05:04:28;;;;;;;15.05;5.00;;;35.90;64.40;;;;;;5047545;28;20040;-72
2023/12/13 05:06:56;;;;;;;12.40;4.22;;;35.50;65.20;;;;;;5047553;28;20060;-72
2023/12/13 05:09:23;;;;;;;15.32;4.28;;;35.30;66.30;;;;;;5033557;28;20032;-72
2023/12/13 05:11:51;;;;;;;11.38;3.92;;;35.10;67.10;;;;;;5048651;28;20034;-72
2023/12/13 05:14:18;;;;;;;13.40;4.68;;;35.10;67.70;;;;;;5048579;28;20053;-72
2023/12/13 05:16:45;;;;;;;12.98;3.70;;;35.60;67.60;;;;;;5046270;28;20976;-72
2023/12/13 05:19:13;;;;;;;15.10;3.35;;;36.00;67.30;;;;;;5052032;28;20370;-71
2023/12/13 05:21:40;;;;;;;14.57;3.50;;;36.20;66.40;;;;;;5049010;28;20032;-72
2023/12/13 05:24:08;;;;;;;8.00;3.08;;;36.40;66.30;;;;;;5030341;28;20037;-72
2023/12/13 05:26:36;;;;;;;12.63;4.38;;;36.40;66.50;;;;;;5049776;28;20021;-71
2023/12/13 05:29:03;;;;;;;18.17;4.10;;;36.20;66.60;;;;;;5047797;28;20037;-73
2023/12/13 05:31:31;;;;;;;21.30;4.72;;;36.20;67.20;;;;;;5050684;28;20083;-71
2023/12/13 05:33:59;;;;;;;18.38;4.35;;;36.40;66.90;;;;;;5047543;28;20087;-72
2023/12/13 05:36:26;;;;;;;11.63;4.07;;;36.50;66.50;;;;;;5048225;28;20037;-73
2023/12/13 05:38:53;;;;;;;11.93;3.50;;;35.90;66.60;;;;;;5047488;28;20086;-73
2023/12/13 05:41:21;;;;;;;14.30;4.53;;;35.60;67.30;;;;;;5049529;28;20025;-73
2023/12/13 05:43:48;;;;;;;15.63;4.47;;;35.40;68.10;;;;;;5048965;28;20029;-72
2023/12/13 05:46:15;;;;;;;14.82;4.55;;;35.20;68.10;;;;;;5049902;28;20450;-72
2023/12/13 05:48:43;;;;;;;16.52;4.78;;;35.10;68.50;;;;;;5031771;28;20029;-72
2023/12/13 05:51:10;;;;;;;12.98;4.32;;;34.90;68.60;;;;;;5051872;28;20041;-72
2023/12/13 05:53:37;;;;;;;12.57;3.92;;;34.90;68.40;;;;;;5054449;28;20385;-72
2023/12/13 05:56:05;;;;;;;20.33;4.45;;;35.00;69.00;;;;;;5051973;28;20036;-72
2023/12/13 05:58:32;;;;;;;16.40;5.65;;;34.90;68.40;;;;;;5051280;28;20124;-72
2023/12/13 06:01:00;;;;;;;17.83;4.75;;;34.90;67.80;;;;;;5054528;28;20021;-73
2023/12/13 06:03:28;;;;;;;15.10;4.85;;;35.10;67.40;;;;;;5046763;28;20420;-72
2023/12/13 06:05:55;;;;;;;11.65;4.05;;;34.70;67.40;;;;;;5033064;28;20382;-72
2023/12/13 06:08:23;;;;;;;14.50;4.28;;;34.70;68.10;;;;;;5049166;28;20029;-73
2023/12/13 06:10:50;;;;;;;18.73;4.63;;;34.80;67.20;;;;;;5048578;28;20029;-73
2023/12/13 06:13:17;;;;;;;7.22;3.50;;;34.80;67.20;;;;;;5049763;28;20052;-73
2023/12/13 06:15:46;;;;;;;14.30;4.38;;;34.90;67.50;;;;;;5052130;28;20462;-73
2023/12/13 06:18:13;;;;;;;12.70;3.28;;;35.20;67.70;;;;;;5044316;28;20041;-73
2023/12/13 06:20:40;;;;;;;11.73;3.22;;;35.30;67.00;;;;;;5031514;28;20071;-74
2023/12/13 06:23:08;;;;;;;16.42;3.88;;;34.90;68.60;;;;;;5048807;28;20036;-73
2023/12/13 06:25:35;;;;;;;13.50;3.50;;;35.00;67.30;;;;;;5049879;28;20071;-73
2023/12/13 06:28:02;;;;;;;9.98;3.40;;;34.90;67.70;;;;;;5047754;28;20060;-73
2023/12/13 06:30:30;;;;;;;13.57;3.05;;;34.80;68.00;;;;;;5050098;28;20017;-73
2023/12/13 06:32:57;;;;;;;21.95;3.22;;;34.70;68.40;;;;;;5047933;28;20071;-73
2023/12/13 06:35:24;;;;;;;19.80;3.38;;;34.60;68.70;;;;;;5048812;28;20028;-73
2023/12/13 06:37:52;;;;;;;14.63;3.25;;;34.40;69.10;;;;;;5047940;28;20099;-73
2023/12/13 06:40:19;;;;;;;16.80;3.55;;;34.20;69.90;;;;;;5047045;28;20438;-74
2023/12/13 06:42:47;;;;;;;14.75;3.28;;;33.80;69.80;;;;;;5047168;28;20051;-73
2023/12/13 06:45:14;;;;;;;13.55;3.25;;;33.60;70.80;;;;;;5047294;28;20024;-74
2023/12/13 06:47:42;;;;;;;14.55;3.17;;;33.30;71.00;;;;;;5047836;28;20024;-73
2023/12/13 06:50:10;;;;;;;13.02;2.92;;;33.30;71.00;;;;;;5045753;28;20040;-74
2023/12/13 06:52:38;;;;;;;12.52;2.90;;;33.00;71.50;;;;;;5045349;28;20083;-73
2023/12/13 06:55:06;;;;;;;13.77;3.13;;;33.00;71.90;;;;;;5045659;28;20044;-73
2023/12/13 06:57:33;;;;;;;14.90;2.65;;;32.80;72.00;;;;;;5044028;28;20033;-74
2023/12/13 07:00:01;;;;;;;15.77;3.03;;;32.50;72.90;;;;;;5043646;28;20052;-73
2023/12/13 07:02:28;;;;;;;26.60;3.75;;;32.50;73.50;;;;;;5044242;28;20469;-73
2023/12/13 07:04:56;;;;;;;19.55;3.50;;;32.60;73.10;;;;;;5044179;28;20037;-73
2023/12/13 07:07:23;;;;;;;17.08;2.95;;;32.70;73.10;;;;;;5044417;28;20021;-73
2023/12/13 07:09:50;;;;;;;25.45;3.58;;;32.60;72.80;;;;;;5045021;28;20025;-73
2023/12/13 07:12:18;;;;;;;19.83;3.13;;;32.40;73.20;;;;;;5045846;28;20086;-74
2023/12/13 07:14:45;;;;;;;13.77;3.10;;;32.20;73.30;;;;;;5043947;28;20029;-73
2023/12/13 07:17:13;;;;;;;15.23;3.30;;;32.00;73.80;;;;;;5042510;28;20031;-73
2023/12/13 07:19:40;;;;;;;19.77;3.20;;;31.90;73.90;;;;;;5048501;28;20064;-73
2023/12/13 07:22:08;;;;;;;13.63;3.88;;;31.90;74.10;;;;;;5023467;28;20116;-72
2023/12/13 07:24:35;;;;;;;14.27;3.35;;;31.70;74.60;;;;;;5049517;28;20033;-73
2023/12/13 07:27:03;;;;;;;14.27;3.33;;;31.40;75.70;;;;;;5050134;28;20025;-73
2023/12/13 07:29:32;;;;;;;21.30;2.97;;;31.10;77.00;;;;;;5045421;28;20020;-72
2023/12/13 07:32:00;;;;;;;14.80;2.95;;;31.00;76.90;;;;;;5052045;28;20108;-72
2023/12/13 07:34:27;;;;;;;19.27;3.47;;;31.00;77.20;;;;;;5046968;28;20017;-72
2023/12/13 07:36:54;;;;;;;18.17;3.38;;;31.00;77.40;;;;;;5049011;28;20111;-72
2023/12/13 07:39:24;;;;;;;21.42;3.10;;;31.00;77.30;;;;;;5047202;28;20029;-72
2023/12/13 07:41:51;;;;;;;17.63;3.70;;;30.90;77.90;;;;;;5045091;28;20095;-72
2023/12/13 07:44:19;;;;;;;14.80;3.00;;;30.90;78.10;;;;;;5030230;28;20388;-71
2023/12/13 07:46:46;;;;;;;14.60;2.35;;;30.80;78.10;;;;;;5049346;28;20021;-72
2023/12/13 07:49:13;;;;;;;12.32;2.75;;;30.80;78.50;;;;;;5044278;28;20397;-71
2023/12/13 07:51:41;;;;;;;14.23;2.50;;;30.60;79.20;;;;;;5051742;28;20481;-71
2023/12/13 07:54:09;;;;;;;13.35;2.78;;;30.50;79.80;;;;;;5047165;28;20028;-72
2023/12/13 07:56:36;;;;;;;11.15;2.33;;;30.60;80.00;;;;;;5050178;28;20024;-72
2023/12/13 07:59:04;;;;;;;14.88;2.92;;;30.60;80.20;;;;;;5037305;28;20021;-71
2023/12/13 08:01:37;;;;;;;12.82;3.08;;;30.60;80.00;;;;;;5058513;28;20354;-71
2023/12/13 08:04:05;;;;;;;13.25;2.42;;;30.70;80.70;;;;;;5052221;28;20044;-72
2023/12/13 08:06:34;;;;;;;17.58;3.40;;;30.60;80.90;;;;;;5039507;28;20013;-72
2023/12/13 08:09:02;;;;;;;16.17;2.83;;;30.60;81.00;;;;;;5053803;28;20425;-73
2023/12/13 08:11:30;;;;;;;14.05;3.25;;;30.60;80.90;;;;;;5039577;28;20037;-73
2023/12/13 08:13:57;;;;;;;11.27;2.60;;;30.50;81.30;;;;;;5055812;28;20033;-72
2023/12/13 08:16:24;;;;;;;10.48;2.45;;;30.50;81.30;;;;;;5056158;28;20103;-72
2023/12/13 08:18:54;;;;;;;10.40;2.15;;;30.40;81.50;;;;;;5053032;28;20159;-72
2023/12/13 08:21:23;;;;;;;14.48;2.40;;;30.40;81.90;;;;;;5039587;28;20048;-72
2023/12/13 08:23:52;;;;;;;10.45;2.58;;;30.20;82.10;;;;;;5052974;28;20063;-72
2023/12/13 08:26:20;;;;;;;11.10;2.33;;;30.20;82.20;;;;;;5055094;28;20030;-72
2023/12/13 08:28:47;;;;;;;12.05;2.63;;;30.20;82.50;;;;;;5050728;28;20466;-70
2023/12/13 08:31:15;;;;;;;13.20;2.90;;;30.10;82.70;;;;;;5029926;28;20033;-72
2023/12/13 08:33:42;;;;;;;11.23;2.25;;;30.00;82.90;;;;;;5029938;28;20110;-73
2023/12/13 08:36:13;;;;;;;14.02;2.85;;;29.90;83.40;;;;;;5047703;28;20125;-73
2023/12/13 08:38:42;;;;;;;13.75;2.55;;;30.00;83.50;;;;;;5049757;28;20033;-71
2023/12/13 08:41:13;;;;;;;11.07;2.92;;;29.90;83.50;;;;;;5047415;28;20416;-72
2023/12/13 08:43:41;;;;;;;16.17;3.55;;;29.90;83.50;;;;;;5049332;28;20032;-72
2023/12/13 08:46:08;;;;;;;15.20;2.95;;;29.90;83.70;;;;;;5045444;28;20048;-72
2023/12/13 08:48:36;;;;;;;10.70;2.63;;;29.80;84.00;;;;;;5052267;28;20025;-72
2023/12/13 08:51:03;;;;;;;16.05;3.53;;;29.80;82.90;;;;;;5057789;28;20083;-72
2023/12/13 08:53:31;;;;;;;17.25;3.33;;;29.40;83.20;;;;;;5059997;28;20032;-73
2023/12/13 08:55:58;;;;;;;12.60;2.78;;;29.40;83.50;;;;;;5036301;28;20025;-72
2023/12/13 08:58:25;;;;;;;9.32;2.50;;;29.40;83.50;;;;;;5057639;28;20417;-73
2023/12/13 09:00:53;;;;;;;14.52;2.67;;;29.30;83.70;;;;;;5038523;28;20167;-73
2023/12/13 09:03:20;;;;;;;9.38;3.03;;;29.20;84.00;;;;;;5055393;28;20527;-74
2023/12/13 09:05:48;;;;;;;9.90;3.03;;;29.10;84.10;;;;;;5055312;28;20040;-72
2023/12/13 09:08:16;;;;;;;15.30;2.75;;;29.10;84.00;;;;;;5036182;28;20025;-72
2023/12/13 09:10:43;;;;;;;9.65;2.20;;;29.10;84.30;;;;;;5058321;28;20374;-73
2023/12/13 09:13:10;;;;;;;15.50;3.05;;;29.00;84.40;;;;;;5051140;28;20017;-73
2023/12/13 09:15:38;;;;;;;15.20;2.63;;;29.00;84.70;;;;;;5027008;28;20436;-73
2023/12/13 09:18:05;;;;;;;11.90;2.72;;;28.70;85.40;;;;;;5039342;28;20477;-73
2023/12/13 09:20:33;;;;;;;21.83;3.17;;;28.70;85.50;;;;;;5048702;28;20043;-72
2023/12/13 09:23:00;;;;;;;12.52;2.58;;;28.70;85.50;;;;;;5053227;28;20044;-73
2023/12/13 09:25:27;;;;;;;13.48;2.30;;;28.60;85.80;;;;;;5056290;28;20111;-73
2023/12/13 09:27:56;;;;;;;12.70;3.20;;;28.50;86.40;;;;;;5050707;28;20055;-73
2023/12/13 09:30:23;;;;;;;16.85;2.67;;;28.60;86.50;;;;;;5035395;28;20021;-72
2023/12/13 09:32:51;;;;;;;10.70;2.20;;;28.60;86.40;;;;;;5055119;28;20107;-73
2023/12/13 09:35:18;;;;;;;17.17;3.13;;;28.70;86.20;;;;;;5052971;28;20493;-72
2023/12/13 09:37:45;;;;;;;9.32;2.70;;;28.70;86.20;;;;;;5058299;28;20033;-72
2023/12/13 09:40:16;;;;;;;14.70;2.83;;;28.50;86.50;;;;;;5057065;28;20089;-72
2023/12/13 09:42:47;;;;;;;15.90;2.90;;;28.40;86.90;;;;;;5058173;28;20032;-71
2023/12/13 09:45:22;;;;;;;15.48;2.72;;;28.30;87.40;;;;;;5060088;28;20029;-71
2023/12/13 09:47:53;;;;;;;14.60;2.85;;;28.30;87.70;;;;;;5035625;28;20102;-72
2023/12/13 09:50:23;;;;;;;17.77;2.60;;;28.30;87.70;;;;;;5055009;28;20044;-72
2023/12/13 09:52:53;;;;;;;14.18;2.67;;;28.10;88.30;;;;;;5052153;28;20078;-72
2023/12/13 09:55:20;;;;;;;11.30;2.58;;;28.10;88.80;;;;;;5058389;28;20027;-72
2023/12/13 09:57:48;;;;;;;14.73;3.08;;;28.10;88.80;;;;;;5052637;28;20029;-71
2023/12/13 10:00:16;;;;;;;15.18;2.60;;;28.20;88.80;;;;;;5052634;28;20036;-72
2023/12/13 10:02:46;;;;;;;14.30;2.42;;;28.20;88.70;;;;;;5060941;28;20496;-72
2023/12/13 10:05:18;;;;;;;11.95;2.40;;;28.20;88.80;;;;;;5054554;28;20167;-72
2023/12/13 10:07:45;;;;;;;24.25;4.72;;;28.10;89.60;;;;;;5052678;28;20032;-73
2023/12/13 10:10:12;;;;;;;16.58;3.75;;;28.00;92.40;;;;;;5054662;28;20026;-73
2023/12/13 10:12:40;;;;;;;18.10;4.13;;;27.10;95.20;;;;;;5045028;28;20032;-73
2023/12/13 10:15:10;;;;;;;24.05;5.38;;;26.20;98.20;;;;;;5051249;28;20040;-73
2023/12/13 10:17:39;;;;;;;26.45;4.88;;;25.80;99.90;;;;;;5044497;28;20029;-73
2023/12/13 10:20:07;;;;;;;22.20;5.13;;;25.30;99.90;;;;;;5048491;28;20053;-73
2023/12/13 10:22:36;;;;;;;16.95;4.47;;;24.70;99.90;;;;;;5029551;28;20351;-73
2023/12/13 10:25:04;;;;;;;30.02;4.60;;;24.70;99.90;;;;;;5046531;28;20040;-72
2023/12/13 10:27:31;;;;;;;26.20;5.80;;;24.90;99.90;;;;;;5035542;28;20025;-73
2023/12/13 10:29:59;;;;;;;22.88;5.50;;;25.20;99.90;;;;;;5053696;28;20020;-73
2023/12/13 10:32:26;;;;;;;19.15;4.32;;;25.20;99.90;;;;;;5048543;28;20572;-71
2023/12/13 10:34:53;;;;;;;22.30;5.15;;;25.10;99.90;;;;;;5052998;28;20036;-72
2023/12/13 10:37:24;;;;;;;19.63;4.25;;;25.00;99.90;;;;;;5048765;28;20040;-71
2023/12/13 10:39:56;;;;;;;23.33;4.25;;;24.90;99.90;;;;;;5051413;28;20109;-72
2023/12/13 10:42:25;;;;;;;23.98;4.57;;;24.90;99.90;;;;;;5049251;28;20108;-71
2023/12/13 10:44:53;;;;;;;23.10;4.05;;;24.90;99.90;;;;;;5053737;28;20022;-72
2023/12/13 10:47:26;;;;;;;19.20;4.68;;;24.70;99.90;;;;;;5050670;28;20029;-73
2023/12/13 10:49:57;;;;;;;14.38;4.05;;;24.70;99.90;;;;;;5055123;28;20060;-72
2023/12/13 10:52:26;;;;;;;15.35;3.38;;;24.70;99.90;;;;;;5050443;28;20044;-72
2023/12/13 10:54:54;;;;;;;14.55;3.95;;;24.80;99.90;;;;;;5033918;28;20043;-72
2023/12/13 10:57:24;;;;;;;15.27;3.92;;;25.00;99.90;;;;;;5032588;28;20073;-72
2023/12/13 10:59:52;;;;;;;19.20;4.05;;;25.00;99.90;;;;;;5048820;28;20373;-72
2023/12/13 11:02:20;;;;;;;24.23;4.60;;;25.00;99.90;;;;;;5054381;28;20036;-72
2023/12/13 11:04:48;;;;;;;17.42;3.83;;;25.10;99.90;;;;;;5053713;28;20045;-71
2023/12/13 11:07:15;;;;;;;18.85;4.38;;;25.20;99.90;;;;;;5053604;28;20027;-72
2023/12/13 11:09:52;;;;;;;18.58;4.75;;;25.50;99.90;;;;;;5052866;28;20484;-71
2023/12/13 11:12:20;;;;;;;26.38;5.78;;;25.50;99.90;;;;;;5054064;28;20029;-72
2023/12/13 11:14:54;;;;;;;15.73;4.28;;;25.50;99.90;;;;;;5057569;28;20025;-72
2023/12/13 11:17:22;;;;;;;21.00;4.28;;;25.40;99.90;;;;;;5054575;28;20033;-72
2023/12/13 11:19:50;;;;;;;20.85;4.40;;;25.30;99.90;;;;;;5054736;28;20025;-72
2023/12/13 11:22:23;;;;;;;21.48;5.35;;;25.20;99.90;;;;;;5057615;28;20013;-72
2023/12/13 11:25:06;;;;;;;17.83;4.80;;;25.20;99.90;;;;;;5056201;28;20025;-71
2023/12/13 11:27:33;;;;;;;22.10;5.25;;;24.90;99.90;;;;;;5056954;28;20523;-72
2023/12/13 11:30:13;;;;;;;14.05;4.72;;;24.50;99.90;;;;;;5050833;28;20037;-73
2023/12/13 11:32:47;;;;;;;14.15;4.53;;;24.20;99.90;;;;;;5050907;28;20029;-73
2023/12/13 11:35:19;;;;;;;13.57;4.47;;;24.20;99.90;;;;;;5055574;28;20033;-72
2023/12/13 11:37:52;;;;;;;15.52;5.25;;;24.30;99.90;;;;;;5052364;28;20060;-72
2023/12/13 11:40:20;;;;;;;15.95;4.75;;;24.20;99.90;;;;;;5057415;28;20024;-73
2023/12/13 11:42:50;;;;;;;18.10;5.78;;;24.20;99.90;;;;;;5062226;28;20037;-72
2023/12/13 11:45:19;;;;;;;20.38;5.75;;;24.30;99.90;;;;;;5053205;28;20025;-72
2023/12/13 11:47:50;;;;;;;18.58;5.85;;;24.30;99.90;;;;;;5064764;28;20036;-72
2023/12/13 11:50:19;;;;;;;19.20;4.40;;;24.40;99.90;;;;;;5057028;28;20053;-73
2023/12/13 11:52:47;;;;;;;12.60;4.38;;;24.40;99.90;;;;;;5050050;28;20061;-72
2023/12/13 11:55:16;;;;;;;17.65;5.32;;;24.20;99.90;;;;;;5058263;28;20037;-72
2023/12/13 11:57:43;;;;;;;17.65;5.13;;;23.90;99.90;;;;;;5037579;28;20508;-72
2023/12/13 12:00:11;;;;;;;24.52;5.60;;;23.90;99.90;;;;;;5057983;28;20175;-72
2023/12/13 12:02:39;;;;;;;18.70;5.03;;;23.90;99.90;;;;;;5056699;28;20041;-72
2023/12/13 12:05:07;;;;;;;14.52;5.07;;;23.90;99.90;;;;;;5056368;28;20044;-73
2023/12/13 12:07:35;;;;;;;11.65;5.15;;;24.00;99.90;;;;;;5059954;28;20027;-73
2023/12/13 12:10:03;;;;;;;13.00;5.10;;;24.00;99.90;;;;;;5054538;28;20029;-72
2023/12/13 12:12:31;;;;;;;18.20;5.35;;;24.10;99.90;;;;;;5041419;28;20024;-72
2023/12/13 12:14:59;;;;;;;18.50;5.40;;;24.10;99.90;;;;;;5062124;28;20024;-71
2023/12/13 12:17:27;;;;;;;12.43;4.75;;;24.10;99.90;;;;;;5046449;28;20466;-71
2023/12/13 12:19:56;;;;;;;22.00;4.88;;;24.40;99.90;;;;;;5049663;28;20449;-71
2023/12/13 12:22:23;;;;;;;14.75;5.03;;;24.40;99.90;;;;;;5053098;28;20961;-71
2023/12/13 12:24:51;;;;;;;17.73;5.75;;;24.50;99.90;;;;;;5054702;28;20470;-70
2023/12/13 12:27:27;;;;;;;13.98;4.60;;;24.50;99.90;;;;;;5055255;28;20021;-71
2023/12/13 12:29:55;;;;;;;17.92;5.80;;;24.20;99.90;;;;;;5036133;28;20490;-71
2023/12/13 12:32:22;;;;;;;13.38;5.35;;;24.20;99.90;;;;;;5054487;28;20017;-71
2023/12/13 12:34:50;;;;;;;11.57;4.55;;;24.20;99.90;;;;;;5061723;28;20036;-71
2023/12/13 12:37:17;;;;;;;16.48;4.57;;;24.30;99.90;;;;;;5053295;28;20419;-72